Time;durP1;ratioP1;P1;durP2;ratioP2;P2;SDS_P1;SDS_P2;PMS_P1;PMS_P2;Temp;Humidity;BMP_temperature;BMP_pressure;BME280_temperature;BME280_humidity;BME280_pressure;Samples;Min_cycle;Max_cycle;Signal;HPM_P1;HPM_P2
2023/07/04 00:01:14;;;;;;;18.45;10.00;;;21.50;73.70;;;;;;5112553;28;20487;-69
2023/07/04 00:03:42;;;;;;;16.45;10.20;;;21.50;73.60;;;;;;5112597;28;20497;-70
2023/07/04 00:06:12;;;;;;;17.40;10.48;;;21.50;73.60;;;;;;5112753;28;20036;-69
2023/07/04 00:08:38;;;;;;;17.83;10.18;;;21.60;73.60;;;;;;5112012;28;20020;-69
2023/07/04 00:11:06;;;;;;;17.40;10.50;;;21.60;73.50;;;;;;5115125;28;20055;-69
2023/07/04 00:13:33;;;;;;;16.00;10.48;;;21.60;73.50;;;;;;5120097;28;20020;-70
2023/07/04 00:15:59;;;;;;;14.23;9.10;;;21.60;73.30;;;;;;5123728;28;20098;-69
2023/07/04 00:18:28;;;;;;;16.88;10.10;;;21.60;73.20;;;;;;5123294;28;20019;-70
2023/07/04 00:20:56;;;;;;;14.25;9.25;;;21.60;73.10;;;;;;5123060;28;20368;-69
2023/07/04 00:23:21;;;;;;;18.33;9.52;;;21.60;73.00;;;;;;5122945;28;20026;-70
2023/07/04 00:25:47;;;;;;;15.90;10.25;;;21.70;72.90;;;;;;5126921;27;20023;-69
2023/07/04 00:28:13;;;;;;;14.60;9.85;;;21.60;72.70;;;;;;5123190;27;20038;-69
2023/07/04 00:30:39;;;;;;;14.50;9.35;;;21.60;72.70;;;;;;5126370;27;20031;-69
2023/07/04 00:33:05;;;;;;;17.80;9.98;;;21.70;72.60;;;;;;5127251;27;20033;-69
2023/07/04 00:35:30;;;;;;;15.68;9.40;;;21.70;72.50;;;;;;5126705;27;20019;-70
2023/07/04 00:37:56;;;;;;;18.48;9.43;;;21.70;72.40;;;;;;5126436;27;20033;-70
2023/07/04 00:40:23;;;;;;;13.32;9.30;;;21.80;72.20;;;;;;5125817;27;20023;-70
2023/07/04 00:42:52;;;;;;;15.40;9.93;;;21.80;72.10;;;;;;5105458;27;20371;-70
2023/07/04 00:45:21;;;;;;;18.90;10.50;;;21.80;71.90;;;;;;5122008;27;20051;-77
2023/07/04 00:47:53;;;;;;;14.43;9.55;;;21.80;71.90;;;;;;5125716;27;20126;-70
2023/07/04 00:50:31;;;;;;;17.17;9.82;;;21.80;71.90;;;;;;5126418;27;20031;-76
2023/07/04 00:53:02;;;;;;;16.65;9.77;;;21.80;72.00;;;;;;5126541;27;20042;-69
2023/07/04 00:55:30;;;;;;;16.88;9.88;;;21.80;72.10;;;;;;5126201;27;20072;-70
2023/07/04 00:57:56;;;;;;;16.15;10.23;;;21.80;72.30;;;;;;5127873;27;20102;-69
2023/07/04 01:00:23;;;;;;;14.20;9.73;;;21.80;72.30;;;;;;5135962;27;20027;-69
2023/07/04 01:02:52;;;;;;;13.90;9.65;;;21.70;72.40;;;;;;5136277;27;20023;-70
2023/07/04 01:05:33;;;;;;;17.25;10.05;;;21.70;72.50;;;;;;5135943;27;20489;-69
2023/07/04 01:08:07;;;;;;;12.93;9.63;;;21.70;72.50;;;;;;5136123;27;20016;-70
2023/07/04 01:10:42;;;;;;;17.25;10.13;;;21.80;72.50;;;;;;5135784;27;20031;-70
2023/07/04 01:13:37;;;;;;;15.98;9.15;;;21.70;73.10;;;;;;5136144;27;20482;-71
2023/07/04 01:16:05;;;;;;;15.05;9.27;;;21.70;72.50;;;;;;5117634;27;20023;-70
2023/07/04 01:18:31;;;;;;;16.35;9.32;;;21.70;72.50;;;;;;5135513;27;20055;-69
2023/07/04 01:20:59;;;;;;;14.32;9.80;;;21.70;72.50;;;;;;5135586;27;20023;-70
2023/07/04 01:24:04;;;;;;;17.13;9.32;;;21.80;72.50;;;;;;5135790;27;20026;-71
2023/07/04 01:26:36;;;;;;;16.77;10.35;;;21.80;72.40;;;;;;5131788;27;20087;-71
2023/07/04 01:29:08;;;;;;;17.65;9.38;;;21.70;72.30;;;;;;5124714;27;20036;-71
2023/07/04 01:31:35;;;;;;;14.25;9.38;;;21.80;72.30;;;;;;5123150;27;20029;-71
2023/07/04 01:34:04;;;;;;;14.73;9.65;;;21.80;72.30;;;;;;5106528;27;20432;-71
2023/07/04 01:36:32;;;;;;;13.73;9.60;;;21.70;72.30;;;;;;5124047;27;20024;-70
2023/07/04 01:38:58;;;;;;;13.65;9.50;;;21.70;72.50;;;;;;5124980;27;20035;-70
2023/07/04 01:41:24;;;;;;;13.90;9.43;;;21.60;72.70;;;;;;5125270;27;20064;-76
2023/07/04 01:43:58;;;;;;;13.07;9.25;;;21.60;73.00;;;;;;5105085;28;20015;-70
2023/07/04 01:46:25;;;;;;;12.95;8.65;;;21.60;73.00;;;;;;5123516;27;20043;-74
2023/07/04 01:48:51;;;;;;;14.68;9.65;;;21.60;73.20;;;;;;5122741;27;20475;-71
2023/07/04 01:51:27;;;;;;;16.08;10.25;;;21.50;73.40;;;;;;5104188;27;20086;-70
2023/07/04 01:53:52;;;;;;;13.63;8.48;;;21.50;73.30;;;;;;5117364;27;20088;-69
2023/07/04 01:56:18;;;;;;;16.88;9.45;;;21.50;73.40;;;;;;5114609;28;20102;-69
2023/07/04 01:58:43;;;;;;;15.88;9.35;;;21.40;73.40;;;;;;5114210;28;20465;-70
2023/07/04 02:01:09;;;;;;;17.67;9.55;;;21.40;73.50;;;;;;5114493;28;20357;-70
2023/07/04 02:03:36;;;;;;;15.10;8.68;;;21.50;73.70;;;;;;5113773;28;20023;-70
2023/07/04 02:06:02;;;;;;;14.50;9.45;;;21.40;73.70;;;;;;5114422;28;20019;-70
2023/07/04 02:08:27;;;;;;;15.00;9.95;;;21.40;73.70;;;;;;5113879;28;20031;-70
2023/07/04 02:10:53;;;;;;;17.98;9.77;;;21.40;73.70;;;;;;5114219;28;20028;-70
2023/07/04 02:13:19;;;;;;;13.93;9.15;;;21.40;73.70;;;;;;5115655;27;20432;-70
2023/07/04 02:15:44;;;;;;;15.70;9.20;;;21.40;73.80;;;;;;5134106;27;20020;-69
2023/07/04 02:18:10;;;;;;;13.98;9.25;;;21.40;74.00;;;;;;5134777;27;20433;-69
2023/07/04 02:20:36;;;;;;;13.75;9.02;;;21.40;74.10;;;;;;5134209;27;20028;-69
2023/07/04 02:23:01;;;;;;;18.58;10.15;;;21.30;74.30;;;;;;5134634;27;20054;-69
2023/07/04 02:25:27;;;;;;;17.20;9.75;;;21.30;74.60;;;;;;5134128;27;20024;-72
2023/07/04 02:27:52;;;;;;;14.90;9.95;;;21.20;74.90;;;;;;5134260;27;20488;-70
2023/07/04 02:30:18;;;;;;;18.50;10.73;;;21.20;75.60;;;;;;5134106;27;20059;-68
2023/07/04 02:32:44;;;;;;;15.93;9.73;;;21.10;76.00;;;;;;5134304;27;20075;-70
2023/07/04 02:35:09;;;;;;;18.13;9.52;;;21.10;76.20;;;;;;5134456;27;20023;-70
2023/07/04 02:37:35;;;;;;;15.32;9.65;;;21.10;76.40;;;;;;5130587;27;20023;-69
2023/07/04 02:40:00;;;;;;;17.42;9.60;;;21.00;76.90;;;;;;5133977;27;20027;-69
2023/07/04 02:42:26;;;;;;;15.63;9.63;;;21.00;77.30;;;;;;5117281;27;20035;-69
2023/07/04 02:44:52;;;;;;;13.43;9.00;;;20.90;77.70;;;;;;5113326;28;20376;-69
2023/07/04 02:47:18;;;;;;;18.92;9.32;;;21.00;77.90;;;;;;5113943;28;20490;-69
2023/07/04 02:49:44;;;;;;;15.77;9.57;;;21.00;77.90;;;;;;5113294;28;20027;-69
2023/07/04 02:52:09;;;;;;;16.42;10.13;;;21.00;77.90;;;;;;5114084;28;20027;-69
2023/07/04 02:54:35;;;;;;;15.43;9.02;;;21.00;77.90;;;;;;5095005;28;20023;-69
2023/07/04 02:57:01;;;;;;;14.40;9.02;;;21.00;78.00;;;;;;5113283;28;20072;-69
2023/07/04 02:59:26;;;;;;;16.35;9.63;;;21.00;78.10;;;;;;5113488;28;20084;-69
2023/07/04 03:01:53;;;;;;;16.65;10.32;;;21.00;78.40;;;;;;5113108;28;20372;-69
2023/07/04 03:04:19;;;;;;;17.27;10.13;;;20.90;79.00;;;;;;5113518;28;20095;-69
2023/07/04 03:06:46;;;;;;;21.13;10.05;;;20.80;79.40;;;;;;5113092;28;20023;-69
2023/07/04 03:09:11;;;;;;;14.98;10.02;;;20.80;79.70;;;;;;5132439;27;20039;-69
2023/07/04 03:11:37;;;;;;;15.48;10.85;;;20.70;79.80;;;;;;5133205;27;20087;-69
2023/07/04 03:14:03;;;;;;;15.45;9.75;;;20.70;80.10;;;;;;5115490;28;20030;-68
2023/07/04 03:16:28;;;;;;;15.63;9.85;;;20.60;80.50;;;;;;5133743;28;20028;-69
2023/07/04 03:18:54;;;;;;;16.10;10.07;;;20.60;80.80;;;;;;5133052;27;20055;-70
2023/07/04 03:21:20;;;;;;;17.10;9.85;;;20.60;80.90;;;;;;5133446;28;20031;-69
2023/07/04 03:23:46;;;;;;;15.52;9.80;;;20.60;81.20;;;;;;5133309;28;20083;-70
2023/07/04 03:26:12;;;;;;;14.82;9.88;;;20.50;81.30;;;;;;5133848;28;20031;-71
2023/07/04 03:28:38;;;;;;;15.70;9.40;;;20.60;81.50;;;;;;5133288;28;20023;-71
2023/07/04 03:31:04;;;;;;;16.30;10.07;;;20.50;81.50;;;;;;5115474;28;20387;-71
2023/07/04 03:33:30;;;;;;;17.65;10.40;;;20.60;81.50;;;;;;5115328;28;20023;-71
2023/07/04 03:35:57;;;;;;;17.05;9.93;;;20.60;81.60;;;;;;5133032;28;20544;-71
2023/07/04 03:38:23;;;;;;;12.75;9.18;;;20.60;81.70;;;;;;5133546;28;20032;-71
2023/07/04 03:40:49;;;;;;;14.88;9.77;;;20.60;81.80;;;;;;5133218;28;20083;-71
2023/07/04 03:43:14;;;;;;;16.48;10.10;;;20.50;81.80;;;;;;5133628;28;20372;-71
2023/07/04 03:45:43;;;;;;;15.88;9.93;;;20.50;81.60;;;;;;5133028;28;20033;-71
2023/07/04 03:48:09;;;;;;;16.98;9.90;;;20.50;81.90;;;;;;5133297;28;20027;-70
2023/07/04 03:50:34;;;;;;;14.98;9.88;;;20.60;81.70;;;;;;5133116;28;20365;-71
2023/07/04 03:53:00;;;;;;;21.45;10.05;;;20.60;81.60;;;;;;5133397;28;20023;-71
2023/07/04 03:55:25;;;;;;;17.17;10.38;;;20.70;81.50;;;;;;5133339;28;20023;-71
2023/07/04 03:57:51;;;;;;;20.83;10.90;;;20.80;81.50;;;;;;5132788;28;20023;-70
2023/07/04 04:00:17;;;;;;;17.00;10.25;;;20.80;81.20;;;;;;5136224;27;20155;-71
2023/07/04 04:02:43;;;;;;;17.55;10.60;;;20.90;81.30;;;;;;5136827;27;20479;-71
2023/07/04 04:05:09;;;;;;;17.67;10.25;;;20.90;81.40;;;;;;5135034;27;20519;-71
2023/07/04 04:07:34;;;;;;;17.75;10.02;;;20.90;81.20;;;;;;5136971;27;20118;-78
2023/07/04 04:10:00;;;;;;;15.35;9.52;;;21.00;81.10;;;;;;5136852;27;20027;-71
2023/07/04 04:12:25;;;;;;;18.88;10.27;;;21.10;81.20;;;;;;5137147;27;20031;-71
2023/07/04 04:14:51;;;;;;;20.48;10.25;;;21.10;80.70;;;;;;5136425;27;20467;-71
2023/07/04 04:17:17;;;;;;;16.50;9.70;;;21.10;80.50;;;;;;5137070;27;20076;-71
2023/07/04 04:19:42;;;;;;;19.17;10.18;;;21.10;80.10;;;;;;5136686;27;20456;-71
2023/07/04 04:22:08;;;;;;;15.57;9.57;;;21.20;79.90;;;;;;5137090;27;20023;-71
2023/07/04 04:24:36;;;;;;;19.50;9.73;;;21.20;79.80;;;;;;5137043;27;20451;-71
2023/07/04 04:27:03;;;;;;;14.57;10.00;;;21.20;80.30;;;;;;5136969;27;20102;-71
2023/07/04 04:29:29;;;;;;;16.70;9.82;;;21.30;80.30;;;;;;5136768;27;20027;-71
2023/07/04 04:31:55;;;;;;;16.25;9.63;;;21.40;79.70;;;;;;5136471;27;20403;-71
2023/07/04 04:34:22;;;;;;;16.15;9.77;;;21.50;79.40;;;;;;5136779;27;20031;-71
2023/07/04 04:36:48;;;;;;;14.10;9.60;;;21.60;78.80;;;;;;5136311;27;20031;-71
2023/07/04 04:39:14;;;;;;;17.52;9.98;;;21.70;78.40;;;;;;5136967;27;20379;-71
2023/07/04 04:41:41;;;;;;;17.42;9.63;;;21.90;78.00;;;;;;5136208;27;20375;-71
2023/07/04 04:44:07;;;;;;;14.30;9.45;;;22.00;77.10;;;;;;5129768;27;20026;-71
2023/07/04 04:46:33;;;;;;;16.75;9.77;;;22.20;76.70;;;;;;5115677;28;20391;-71
2023/07/04 04:49:02;;;;;;;16.33;9.38;;;22.50;75.20;;;;;;5115194;28;20027;-71
2023/07/04 04:51:28;;;;;;;16.60;9.75;;;22.80;74.40;;;;;;5115825;28;20035;-70
2023/07/04 04:53:53;;;;;;;17.00;9.13;;;23.10;73.20;;;;;;5115379;28;20038;-71
2023/07/04 04:56:19;;;;;;;15.25;9.20;;;23.20;72.00;;;;;;5115770;28;20016;-71
2023/07/04 04:58:45;;;;;;;15.50;9.55;;;23.50;72.20;;;;;;5115106;28;20111;-71
2023/07/04 05:01:15;;;;;;;16.80;9.80;;;23.80;70.70;;;;;;5115969;28;20024;-71
2023/07/04 05:03:44;;;;;;;17.83;9.48;;;24.20;69.10;;;;;;5115269;28;20538;-71
2023/07/04 05:06:10;;;;;;;16.88;9.57;;;24.80;67.60;;;;;;5115622;28;20028;-71
2023/07/04 05:08:36;;;;;;;20.80;9.68;;;25.30;66.00;;;;;;5115341;28;20392;-71
2023/07/04 05:11:06;;;;;;;13.43;9.43;;;25.70;63.60;;;;;;5113511;28;20031;-71
2023/07/04 05:13:37;;;;;;;15.43;8.98;;;26.20;61.90;;;;;;5115399;28;20039;-71
2023/07/04 05:16:05;;;;;;;20.13;9.43;;;26.50;60.50;;;;;;5115056;28;20020;-71
2023/07/04 05:18:33;;;;;;;14.15;8.98;;;26.50;59.40;;;;;;5115269;28;20027;-71
2023/07/04 05:21:03;;;;;;;16.65;9.85;;;26.60;59.40;;;;;;5114556;28;20376;-71
2023/07/04 05:23:32;;;;;;;12.18;8.60;;;26.70;58.50;;;;;;5115357;28;20031;-71
2023/07/04 05:26:19;;;;;;;15.18;8.70;;;27.00;58.20;;;;;;5114722;28;20556;-71
2023/07/04 05:28:45;;;;;;;14.75;8.60;;;27.00;57.30;;;;;;5114430;28;20026;-71
2023/07/04 05:31:16;;;;;;;13.07;8.93;;;27.10;57.10;;;;;;5115238;28;20028;-71
2023/07/04 05:33:41;;;;;;;;;;;27.30;56.40;;;;;;5115145;28;20077;-76
2023/07/04 05:36:07;;;;;;;14.25;8.50;;;27.50;55.50;;;;;;5125071;27;19911;-71
2023/07/04 05:38:33;;;;;;;16.90;8.73;;;27.70;55.40;;;;;;5124059;27;20015;-71
2023/07/04 05:40:59;;;;;;;15.85;8.88;;;28.00;54.80;;;;;;5125540;27;20468;-71
2023/07/04 05:43:25;;;;;;;21.85;11.43;;;28.10;53.70;;;;;;5123364;27;20024;-72
2023/07/04 05:45:52;;;;;;;14.88;8.32;;;28.10;53.00;;;;;;5106411;27;20039;-71
2023/07/04 05:48:18;;;;;;;14.05;8.48;;;28.20;53.60;;;;;;5124779;27;20023;-71
2023/07/04 05:50:55;;;;;;;15.43;9.18;;;28.20;52.20;;;;;;5122499;27;20023;-76
2023/07/04 05:53:26;;;;;;;17.65;8.50;;;28.20;52.90;;;;;;5125026;27;20016;-71
2023/07/04 05:55:52;;;;;;;12.15;7.97;;;28.40;52.60;;;;;;5121790;27;20523;-71
2023/07/04 05:58:19;;;;;;;13.35;7.63;;;28.70;51.50;;;;;;5122390;27;20025;-71
2023/07/04 06:00:48;;;;;;;12.90;6.75;;;29.20;49.90;;;;;;5122300;27;20034;-76
2023/07/04 06:03:17;;;;;;;10.90;5.60;;;29.50;47.00;;;;;;5124064;27;20387;-71
2023/07/04 06:05:43;;;;;;;13.75;6.72;;;30.00;45.70;;;;;;5122838;27;20449;-72
2023/07/04 06:08:09;;;;;;;13.50;7.45;;;30.40;45.20;;;;;;5124395;27;20023;-71
2023/07/04 06:10:35;;;;;;;13.15;6.10;;;30.80;46.20;;;;;;5104983;27;20113;-71
2023/07/04 06:13:01;;;;;;;12.57;6.63;;;31.40;44.50;;;;;;5134172;27;20038;-72
2023/07/04 06:15:27;;;;;;;8.57;6.15;;;32.00;43.20;;;;;;5134650;27;20019;-72
2023/07/04 06:17:52;;;;;;;10.20;6.15;;;32.60;42.80;;;;;;5134247;27;20068;-72
2023/07/04 06:20:19;;;;;;;9.93;5.75;;;33.20;41.50;;;;;;5134379;27;20096;-72
2023/07/04 06:22:44;;;;;;;8.75;5.60;;;33.90;39.90;;;;;;5134259;27;20030;-72
2023/07/04 06:25:10;;;;;;;9.27;5.45;;;34.60;38.50;;;;;;5134615;27;20027;-72
2023/07/04 06:27:36;;;;;;;8.05;5.25;;;35.10;36.60;;;;;;5125222;27;20471;-72
2023/07/04 06:30:01;;;;;;;10.05;4.65;;;35.80;35.80;;;;;;5122156;27;20099;-72
2023/07/04 06:32:27;;;;;;;10.98;5.38;;;35.90;34.90;;;;;;5124355;27;20084;-71
2023/07/04 06:34:53;;;;;;;8.18;4.97;;;36.50;34.90;;;;;;5128660;27;20030;-72
2023/07/04 06:37:18;;;;;;;6.15;4.65;;;37.00;34.60;;;;;;5125161;27;20376;-73
2023/07/04 06:39:44;;;;;;;9.98;5.32;;;37.50;34.10;;;;;;5123979;27;20475;-71
2023/07/04 06:42:09;;;;;;;11.05;5.50;;;37.90;33.20;;;;;;5103266;28;20031;-71
2023/07/04 06:44:35;;;;;;;9.95;5.57;;;37.80;33.30;;;;;;5123694;27;20023;-72
2023/07/04 06:47:01;;;;;;;13.15;6.05;;;38.00;32.90;;;;;;5122919;27;20047;-73
2023/07/04 06:49:27;;;;;;;8.50;5.68;;;38.10;32.10;;;;;;5124477;27;20035;-72
2023/07/04 06:51:52;;;;;;;10.48;5.15;;;38.40;32.30;;;;;;5123252;27;20023;-72
2023/07/04 06:54:18;;;;;;;6.53;5.00;;;38.40;31.60;;;;;;5122662;27;20015;-72
2023/07/04 06:56:43;;;;;;;11.00;5.28;;;38.70;31.40;;;;;;5124390;27;20031;-71
2023/07/04 06:59:09;;;;;;;9.70;4.50;;;38.70;30.80;;;;;;5117968;27;20143;-71
2023/07/04 07:01:38;;;;;;;9.07;5.07;;;38.70;30.70;;;;;;5112820;28;20372;-70
2023/07/04 07:04:04;;;;;;;10.45;5.53;;;38.80;31.40;;;;;;5112487;28;20106;-71
2023/07/04 07:06:30;;;;;;;10.57;5.65;;;38.30;30.70;;;;;;5112897;28;20119;-71
2023/07/04 07:08:56;;;;;;;9.23;5.22;;;38.30;31.10;;;;;;5112399;28;20063;-71
2023/07/04 07:11:22;;;;;;;8.75;4.88;;;38.80;30.90;;;;;;5112743;28;20530;-71
2023/07/04 07:13:48;;;;;;;8.23;5.10;;;38.60;30.40;;;;;;5112615;28;20527;-71
2023/07/04 07:16:17;;;;;;;8.55;4.95;;;38.70;31.00;;;;;;5112449;28;20368;-71
2023/07/04 07:18:44;;;;;;;11.88;4.85;;;39.10;30.10;;;;;;5112746;28;20410;-71
2023/07/04 07:21:12;;;;;;;9.60;5.18;;;38.90;30.20;;;;;;5112196;28;20836;-71
2023/07/04 07:23:39;;;;;;;10.75;4.13;;;39.10;31.00;;;;;;5112892;28;20077;-71
2023/07/04 07:26:07;;;;;;;9.18;4.88;;;39.30;30.10;;;;;;5112295;28;20492;-71
2023/07/04 07:28:41;;;;;;;8.43;4.68;;;39.70;29.90;;;;;;5112816;28;20028;-71
2023/07/04 07:31:18;;;;;;;6.10;4.63;;;39.70;29.30;;;;;;5112152;28;20067;-71
2023/07/04 07:33:45;;;;;;;8.27;4.25;;;39.20;29.80;;;;;;5113183;28;20106;-71
2023/07/04 07:36:20;;;;;;;10.25;4.85;;;39.60;29.90;;;;;;5123304;27;20080;-71
2023/07/04 07:38:47;;;;;;;10.80;4.72;;;40.10;29.60;;;;;;5134445;27;20087;-71
2023/07/04 07:41:13;;;;;;;10.32;5.43;;;40.10;29.30;;;;;;5126939;27;20032;-72
2023/07/04 07:43:40;;;;;;;9.88;4.93;;;40.10;29.50;;;;;;5125212;27;20448;-71
2023/07/04 07:46:11;;;;;;;8.93;5.22;;;40.00;29.10;;;;;;5121666;27;20048;-70
2023/07/04 07:48:37;;;;;;;9.23;5.20;;;39.50;29.20;;;;;;5123101;27;20046;-71
2023/07/04 07:51:03;;;;;;;6.20;4.65;;;39.60;29.80;;;;;;5117169;27;20028;-72
2023/07/04 07:53:29;;;;;;;11.23;4.80;;;39.30;29.60;;;;;;5116665;28;20464;-70
2023/07/04 07:55:54;;;;;;;11.23;5.13;;;39.40;29.80;;;;;;5116100;28;20076;-76
2023/07/04 07:58:20;;;;;;;12.23;4.78;;;39.40;29.60;;;;;;5116637;28;20024;-71
2023/07/04 08:00:46;;;;;;;9.73;5.63;;;39.30;29.90;;;;;;5121058;27;20396;-71
2023/07/04 08:03:12;;;;;;;10.85;5.45;;;39.50;29.90;;;;;;5120099;27;20023;-72
2023/07/04 08:05:41;;;;;;;8.27;5.30;;;38.90;29.80;;;;;;5120534;27;20023;-71
2023/07/04 08:08:08;;;;;;;11.65;5.82;;;38.40;30.20;;;;;;5115790;28;20024;-70
2023/07/04 08:10:35;;;;;;;9.00;5.25;;;38.50;30.10;;;;;;5116301;28;20043;-70
2023/07/04 08:13:01;;;;;;;11.05;5.47;;;38.00;30.00;;;;;;5115985;28;20034;-70
2023/07/04 08:15:27;;;;;;;12.45;5.03;;;37.90;31.30;;;;;;5123086;27;20026;-70
2023/07/04 08:17:52;;;;;;;7.88;5.50;;;38.10;31.10;;;;;;5135331;27;20084;-71
2023/07/04 08:20:21;;;;;;;9.57;5.38;;;38.00;31.10;;;;;;5135017;27;20027;-70
2023/07/04 08:22:47;;;;;;;10.00;5.82;;;37.70;31.40;;;;;;5116712;28;20016;-70
2023/07/04 08:25:13;;;;;;;9.68;5.28;;;37.50;30.90;;;;;;5116770;28;20024;-72
2023/07/04 08:27:38;;;;;;;6.65;4.70;;;37.50;31.90;;;;;;5125582;27;20020;-70
2023/07/04 08:30:05;;;;;;;14.07;5.35;;;37.50;30.50;;;;;;5110855;28;20028;-72
2023/07/04 08:32:30;;;;;;;10.50;5.47;;;37.10;30.10;;;;;;5116062;28;20032;-72
2023/07/04 08:34:56;;;;;;;9.02;5.13;;;36.80;30.50;;;;;;5115986;28;20084;-78
2023/07/04 08:37:22;;;;;;;13.07;5.13;;;36.40;31.10;;;;;;5116158;28;20376;-70
2023/07/04 08:39:49;;;;;;;9.77;4.78;;;36.20;31.90;;;;;;5116061;28;20349;-70
2023/07/04 08:42:17;;;;;;;11.73;5.15;;;36.20;31.90;;;;;;5115475;28;20462;-70
2023/07/04 08:44:46;;;;;;;7.93;4.40;;;36.00;32.00;;;;;;5115648;28;20038;-70
2023/07/04 08:47:14;;;;;;;15.38;5.28;;;35.70;32.20;;;;;;5114872;28;20484;-71
2023/07/04 08:49:41;;;;;;;13.05;5.25;;;35.40;32.40;;;;;;5115815;28;20472;-71
2023/07/04 08:52:23;;;;;;;9.52;5.15;;;35.20;32.70;;;;;;5115406;28;20039;-71
2023/07/04 08:54:54;;;;;;;11.38;5.38;;;34.80;32.80;;;;;;5115701;28;20028;-71
2023/07/04 08:57:38;;;;;;;7.05;5.00;;;34.60;33.30;;;;;;5115309;28;20039;-71
2023/07/04 09:00:16;;;;;;;16.20;5.75;;;34.40;33.40;;;;;;5097790;28;20055;-70
2023/07/04 09:03:09;;;;;;;8.40;5.00;;;34.10;33.00;;;;;;5115589;28;20034;-70
2023/07/04 09:06:00;;;;;;;11.25;5.75;;;33.70;33.40;;;;;;5115400;28;20030;-70
2023/07/04 09:08:56;;;;;;;8.75;5.00;;;33.30;33.90;;;;;;5115646;28;20020;-70
2023/07/04 09:11:22;;;;;;;7.75;5.18;;;32.90;34.70;;;;;;5114665;28;20491;-70
2023/07/04 09:13:55;;;;;;;11.73;5.03;;;32.80;35.30;;;;;;5115120;28;20525;-72
2023/07/04 09:16:43;;;;;;;9.75;5.15;;;32.60;35.00;;;;;;5114852;28;20024;-72
2023/07/04 09:19:12;;;;;;;9.45;4.95;;;32.20;36.90;;;;;;5114494;28;20376;-71
2023/07/04 09:21:38;;;;;;;13.30;5.45;;;32.00;35.60;;;;;;5115156;28;20460;-70
2023/07/04 09:24:04;;;;;;;9.23;4.90;;;31.80;35.80;;;;;;5114687;28;20029;-70
2023/07/04 09:26:52;;;;;;;10.85;5.65;;;31.60;35.90;;;;;;5115404;28;20395;-70
2023/07/04 09:29:22;;;;;;;9.85;5.38;;;31.40;36.70;;;;;;5114790;28;20114;-70
2023/07/04 09:31:53;;;;;;;10.90;5.50;;;31.20;37.40;;;;;;5114850;28;20034;-70
2023/07/04 09:34:35;;;;;;;10.30;5.50;;;31.00;37.90;;;;;;5114633;28;20456;-71
2023/07/04 09:37:10;;;;;;;12.50;6.65;;;30.90;38.30;;;;;;5114807;28;20123;-72
2023/07/04 09:39:58;;;;;;;9.00;5.72;;;30.70;38.80;;;;;;5114767;28;20484;-71
2023/07/04 09:42:45;;;;;;;11.07;6.35;;;30.40;39.40;;;;;;5114484;28;20031;-71
2023/07/04 09:45:19;;;;;;;12.23;6.85;;;30.10;40.60;;;;;;5114330;28;20054;-71
2023/07/04 09:47:45;;;;;;;17.15;8.18;;;29.70;41.50;;;;;;5114189;28;20039;-71
2023/07/04 09:50:30;;;;;;;9.30;6.28;;;29.40;42.40;;;;;;5113986;28;20024;-71
2023/07/04 09:53:11;;;;;;;10.85;6.78;;;29.30;42.90;;;;;;5114630;28;20115;-71
2023/07/04 09:55:40;;;;;;;9.98;6.22;;;29.30;42.90;;;;;;5114349;28;20027;-71
2023/07/04 09:58:23;;;;;;;13.50;6.38;;;29.50;43.20;;;;;;5113352;28;20059;-71
2023/07/04 10:01:15;;;;;;;12.38;7.63;;;29.80;43.30;;;;;;5114370;28;20024;-71
2023/07/04 10:03:42;;;;;;;9.68;6.25;;;30.00;42.90;;;;;;5114218;28;20421;-71
2023/07/04 10:06:10;;;;;;;11.45;6.47;;;30.10;42.20;;;;;;5113858;28;20409;-71
2023/07/04 10:08:51;;;;;;;12.95;7.00;;;30.30;41.90;;;;;;5113876;28;20026;-71
2023/07/04 10:11:30;;;;;;;11.77;6.55;;;30.30;41.20;;;;;;5113682;28;20064;-70
2023/07/04 10:14:02;;;;;;;12.18;6.28;;;30.40;41.10;;;;;;5114063;28;20032;-71
2023/07/04 10:16:28;;;;;;;12.15;7.40;;;30.50;41.10;;;;;;5113612;28;20069;-70
2023/07/04 10:19:11;;;;;;;11.98;6.32;;;30.50;40.90;;;;;;5113485;28;20437;-72
2023/07/04 10:21:48;;;;;;;12.57;5.95;;;30.60;41.40;;;;;;5113895;28;20027;-71
2023/07/04 10:24:25;;;;;;;9.32;5.75;;;30.60;40.60;;;;;;5113640;28;20114;-71
2023/07/04 10:27:03;;;;;;;10.02;5.78;;;30.70;40.30;;;;;;5126186;27;20106;-70
2023/07/04 10:29:32;;;;;;;11.60;6.32;;;30.70;40.30;;;;;;5116885;27;20459;-70
2023/07/04 10:32:07;;;;;;;12.82;6.47;;;30.70;40.30;;;;;;5113597;28;20430;-71
2023/07/04 10:34:35;;;;;;;12.18;6.40;;;30.70;40.50;;;;;;5116101;27;20107;-72
2023/07/04 10:37:03;;;;;;;10.98;6.43;;;30.60;40.40;;;;;;5133994;27;20031;-70
2023/07/04 10:39:31;;;;;;;13.23;6.43;;;30.70;40.90;;;;;;5133500;27;20159;-71
2023/07/04 10:42:08;;;;;;;8.07;5.57;;;30.70;41.30;;;;;;5134316;27;20474;-69
2023/07/04 10:44:37;;;;;;;10.93;6.78;;;30.70;41.20;;;;;;5134259;27;20019;-71
2023/07/04 10:47:06;;;;;;;12.48;6.40;;;30.90;42.70;;;;;;5134022;27;20493;-71
2023/07/04 10:49:52;;;;;;;15.98;10.32;;;30.90;41.50;;;;;;5133992;27;20087;-71
2023/07/04 10:52:22;;;;;;;13.00;6.90;;;30.90;41.50;;;;;;5133650;27;20030;-71
2023/07/04 10:54:47;;;;;;;11.35;6.07;;;30.80;41.80;;;;;;5133614;27;20050;-71
2023/07/04 10:57:34;;;;;;;12.57;6.95;;;30.70;41.50;;;;;;5133613;27;20038;-71
2023/07/04 11:00:09;;;;;;;11.07;6.43;;;30.70;41.60;;;;;;5133942;27;20027;-71
2023/07/04 11:02:46;;;;;;;11.20;6.28;;;30.70;41.90;;;;;;5133969;27;20055;-71
2023/07/04 11:05:18;;;;;;;8.98;5.80;;;30.70;41.50;;;;;;5133511;27;20019;-71
2023/07/04 11:07:44;;;;;;;9.95;5.82;;;30.80;41.70;;;;;;5133879;27;20015;-71
2023/07/04 11:10:12;;;;;;;9.05;5.40;;;30.80;41.20;;;;;;5132175;27;20482;-71
2023/07/04 11:12:41;;;;;;;9.68;5.80;;;30.70;41.30;;;;;;5133660;27;20042;-71
2023/07/04 11:15:21;;;;;;;7.68;4.95;;;30.70;41.70;;;;;;5133807;27;20023;-72
2023/07/04 11:17:48;;;;;;;8.63;5.22;;;30.40;41.50;;;;;;5133896;27;20019;-71
2023/07/04 11:20:18;;;;;;;14.23;6.00;;;30.30;42.50;;;;;;5133549;27;20034;-71
2023/07/04 11:22:47;;;;;;;7.72;5.43;;;30.20;42.70;;;;;;5133683;28;20025;-70
2023/07/04 11:25:32;;;;;;;11.13;5.65;;;30.30;43.50;;;;;;5132908;28;20091;-71
2023/07/04 11:28:35;;;;;;;8.10;5.50;;;30.20;42.60;;;;;;5133405;28;20111;-71
2023/07/04 11:31:07;;;;;;;6.25;4.80;;;30.20;41.80;;;;;;5114929;28;20027;-70
2023/07/04 11:33:43;;;;;;;8.23;5.60;;;30.30;42.40;;;;;;5132969;28;20035;-72
2023/07/04 11:36:34;;;;;;;7.60;4.60;;;30.50;42.80;;;;;;5133379;28;20051;-70
2023/07/04 11:39:18;;;;;;;7.43;4.75;;;30.50;43.20;;;;;;5133408;28;20062;-70
2023/07/04 11:41:44;;;;;;;9.50;4.68;;;30.40;42.60;;;;;;5133121;28;20498;-70
2023/07/04 11:44:41;;;;;;;9.18;4.10;;;30.40;41.60;;;;;;5133710;28;20020;-70
2023/07/04 11:47:10;;;;;;;5.13;3.00;;;30.50;41.40;;;;;;5132831;28;20055;-70
2023/07/04 11:49:37;;;;;;;6.30;3.60;;;30.40;41.40;;;;;;5133284;28;20035;-70
2023/07/04 11:52:16;;;;;;;6.65;3.67;;;30.30;41.00;;;;;;5133329;28;20112;-70
2023/07/04 11:54:44;;;;;;;7.63;3.80;;;30.30;40.40;;;;;;5133348;28;20114;-70
2023/07/04 11:57:10;;;;;;;5.40;3.80;;;30.40;41.10;;;;;;5133301;28;20415;-70
2023/07/04 11:59:41;;;;;;;6.90;4.00;;;30.30;41.10;;;;;;5133040;28;20095;-70
2023/07/04 12:02:25;;;;;;;4.38;3.28;;;30.10;41.30;;;;;;5133491;28;20027;-70
2023/07/04 12:04:51;;;;;;;5.80;3.83;;;29.90;41.50;;;;;;5133266;28;20027;-69
2023/07/04 12:07:39;;;;;;;7.10;3.88;;;29.90;41.70;;;;;;5132721;28;20024;-71
2023/07/04 12:10:17;;;;;;;10.32;4.68;;;29.90;41.80;;;;;;5133111;28;20023;-71
2023/07/04 12:12:44;;;;;;;7.90;3.70;;;29.80;42.60;;;;;;5133208;28;20055;-71
2023/07/04 12:15:23;;;;;;;7.15;3.70;;;29.70;42.70;;;;;;5132898;28;20035;-71
2023/07/04 12:17:49;;;;;;;7.53;4.57;;;29.60;43.90;;;;;;5132603;28;20031;-71
2023/07/04 12:20:18;;;;;;;9.25;4.40;;;29.60;43.80;;;;;;5133484;27;20094;-71
2023/07/04 12:22:45;;;;;;;6.55;3.95;;;29.60;43.70;;;;;;5136548;27;20031;-71
2023/07/04 12:25:18;;;;;;;5.10;3.55;;;29.60;42.80;;;;;;5136703;27;20023;-70
2023/07/04 12:27:44;;;;;;;5.75;3.72;;;29.50;42.80;;;;;;5136693;27;20050;-71
2023/07/04 12:30:12;;;;;;;5.55;3.35;;;29.50;43.50;;;;;;5124035;27;20031;-70
2023/07/04 12:32:38;;;;;;;5.05;3.13;;;29.40;43.30;;;;;;5115704;28;20063;-71
2023/07/04 12:35:06;;;;;;;4.68;2.70;;;29.30;42.70;;;;;;5115944;28;20066;-71
2023/07/04 12:37:39;;;;;;;3.58;2.60;;;29.30;42.40;;;;;;5115643;28;20110;-71
2023/07/04 12:40:11;;;;;;;7.68;2.33;;;29.30;42.90;;;;;;5116054;28;20039;-71
2023/07/04 12:42:37;;;;;;;2.83;1.90;;;29.30;42.00;;;;;;5104871;27;20119;-70
2023/07/04 12:45:15;;;;;;;3.88;2.42;;;29.30;41.30;;;;;;5136329;27;20055;-72
2023/07/04 12:47:41;;;;;;;3.25;2.25;;;29.30;42.50;;;;;;5136632;27;20050;-71
2023/07/04 12:50:08;;;;;;;5.30;2.20;;;29.20;41.60;;;;;;5136200;27;20023;-71